Time;durP1;ratioP1;P1;durP2;ratioP2;P2;SDS_P1;SDS_P2;PMS_P1;PMS_P2;Temp;Humidity;BMP_temperature;BMP_pressure;BME280_temperature;BME280_humidity;BME280_pressure;Samples;Min_cycle;Max_cycle;Signal;HPM_P1;HPM_P2
2023/09/11 00:02:07;;;;;;;;;19.50;18.25;;;;;25.54;64.02;101367.44;4999074;28;8917;-69
2023/09/11 00:04:34;;;;;;;;;18.25;18.25;;;;;25.51;64.47;101363.31;4996080;28;8859;-69
2023/09/11 00:07:01;;;;;;;;;19.75;19.75;;;;;25.49;64.36;101365.53;4994999;28;8847;-68
2023/09/11 00:09:28;;;;;;;;;19.75;18.75;;;;;25.47;64.20;101366.91;4996399;28;8874;-68
2023/09/11 00:11:54;;;;;;;;;20.00;18.75;;;;;25.46;64.43;101365.28;4981767;28;8870;-69
2023/09/11 00:14:21;;;;;;;;;19.50;16.75;;;;;25.43;64.22;101361.16;4995652;28;8870;-68
2023/09/11 00:16:47;;;;;;;;;20.25;18.25;;;;;25.38;64.39;101367.50;4998486;28;8824;-69
2023/09/11 00:19:14;;;;;;;;;18.75;17.75;;;;;25.40;64.32;101356.19;4999953;28;8827;-69
2023/09/11 00:21:40;;;;;;;;;19.50;19.25;;;;;25.39;64.16;101365.56;4984094;28;10389;-69
2023/09/11 00:24:07;;;;;;;;;17.25;17.00;;;;;25.37;64.31;101356.78;4997523;28;8835;-69
2023/09/11 00:26:33;;;;;;;;;17.50;17.50;;;;;25.37;64.48;101354.84;4995443;28;8839;-68
2023/09/11 00:29:00;;;;;;;;;15.00;14.50;;;;;25.37;64.42;101359.53;4983411;28;8956;-68
2023/09/11 00:31:27;;;;;;;;;19.00;18.00;;;;;25.38;64.44;101352.91;4995288;28;8877;-69
2023/09/11 00:33:53;;;;;;;;;16.00;15.00;;;;;25.36;64.70;101355.94;4984361;28;9500;-68
2023/09/11 00:36:19;;;;;;;;;15.25;15.25;;;;;25.36;64.71;101353.19;4977298;28;8871;-68
2023/09/11 00:38:47;;;;;;;;;19.00;18.50;;;;;25.38;64.35;101348.22;4980889;28;8917;-69
2023/09/11 00:41:14;;;;;;;;;20.50;17.00;;;;;25.37;64.33;101340.25;4997250;28;8970;-69
2023/09/11 00:43:40;;;;;;;;;19.75;18.75;;;;;25.34;64.50;101351.81;4995429;28;8827;-68
2023/09/11 00:46:07;;;;;;;;;17.75;16.75;;;;;25.31;64.69;101347.69;4976230;28;8911;-68
2023/09/11 00:48:34;;;;;;;;;18.25;17.75;;;;;25.28;64.77;101348.25;4996837;28;8863;-69
2023/09/11 00:51:02;;;;;;;;;20.50;19.75;;;;;25.28;64.84;101344.66;4980147;28;9582;-68
2023/09/11 00:53:28;;;;;;;;;20.75;20.25;;;;;25.30;65.00;101345.22;4985531;28;8851;-69
2023/09/11 00:55:55;;;;;;;;;16.00;15.25;;;;;25.29;64.61;101346.31;4996404;28;8925;-68
2023/09/11 00:58:22;;;;;;;;;19.50;18.50;;;;;25.28;64.83;101336.38;4959104;28;8867;-69
2023/09/11 01:00:48;;;;;;;;;20.00;18.25;;;;;25.26;64.91;101339.44;4981973;28;8875;-69
2023/09/11 01:03:15;;;;;;;;;17.25;17.25;;;;;25.24;65.10;101330.66;4984103;28;8851;-69
2023/09/11 01:05:43;;;;;;;;;21.25;21.00;;;;;25.23;64.99;101330.91;4958035;28;8882;-69
2023/09/11 01:08:10;;;;;;;;;17.75;17.75;;;;;25.21;65.06;101319.34;4993616;28;8909;-70
2023/09/11 01:10:37;;;;;;;;;17.50;17.50;;;;;25.20;65.27;101320.44;4993222;28;9026;-70
2023/09/11 01:13:04;;;;;;;;;16.75;16.75;;;;;25.19;65.21;101321.53;4995802;28;8855;-69
2023/09/11 01:15:40;;;;;;;;;15.50;15.50;;;;;25.20;65.29;101317.69;4989098;28;8851;-68
2023/09/11 01:18:13;;;;;;;;;16.25;16.25;;;;;25.19;65.26;101318.78;4995697;28;8839;-68
2023/09/11 01:21:17;;;;;;;;;19.25;19.00;;;;;25.15;65.27;101319.34;4989939;28;8983;-67
2023/09/11 01:24:21;;;;;;;;;17.75;16.75;;;;;25.13;65.49;101318.81;4992800;28;9169;-68
2023/09/11 01:27:12;;;;;;;;;17.75;17.75;;;;;25.11;65.41;101320.19;4976978;28;8900;-68
2023/09/11 01:29:41;;;;;;;;;17.75;16.00;;;;;25.07;65.62;101317.13;4991988;28;8859;-69
2023/09/11 01:32:08;;;;;;;;;18.50;17.00;;;;;25.07;65.55;101319.88;5000265;28;8885;-68
2023/09/11 01:34:35;;;;;;;;;20.50;19.75;;;;;25.06;65.67;101314.66;4995939;28;8969;-70
2023/09/11 01:37:01;;;;;;;;;22.00;22.00;;;;;25.02;65.99;101316.34;4984013;28;8856;-70
2023/09/11 01:39:28;;;;;;;;;18.75;18.75;;;;;24.95;65.90;101311.09;4980312;28;8827;-69
2023/09/11 01:42:00;;;;;;;;;19.50;19.50;;;;;24.94;66.33;101306.72;4976757;28;8855;-70
2023/09/11 01:44:37;;;;;;;;;23.00;20.25;;;;;24.95;66.21;101310.28;4981975;28;9863;-69
2023/09/11 01:47:06;;;;;;;;;18.00;17.00;;;;;24.89;66.38;101299.28;5002278;28;8827;-69
2023/09/11 01:49:36;;;;;;;;;15.25;15.25;;;;;24.87;66.48;101300.66;5005004;28;8850;-69
2023/09/11 01:52:03;;;;;;;;;20.00;19.25;;;;;24.88;66.56;101297.66;4977244;28;9624;-68
2023/09/11 01:54:30;;;;;;;;;14.75;14.25;;;;;24.87;66.67;101300.66;4994084;28;8844;-68
2023/09/11 01:56:57;;;;;;;;;18.25;18.25;;;;;24.88;66.39;101294.06;4990742;28;8874;-68
2023/09/11 01:59:24;;;;;;;;;17.75;17.75;;;;;24.87;66.34;101287.75;4994685;28;8823;-69
2023/09/11 02:01:50;;;;;;;;;17.50;17.25;;;;;24.90;66.33;101289.91;4997416;28;8883;-69
2023/09/11 02:04:17;;;;;;;;;16.00;16.00;;;;;24.89;66.23;101280.00;4958997;28;1029160;-69
2023/09/11 02:06:44;;;;;;;;;17.00;17.00;;;;;24.86;66.45;101275.06;4994575;28;8871;-68
2023/09/11 02:09:10;;;;;;;;;19.75;19.00;;;;;24.87;66.33;101275.88;4983629;28;8863;-68
2023/09/11 02:11:36;;;;;;;;;21.25;19.75;;;;;24.86;66.35;101271.47;4995750;28;8877;-69
2023/09/11 02:14:03;;;;;;;;;23.00;23.00;;;;;24.85;66.47;101275.34;4987632;28;8882;-68
2023/09/11 02:16:29;;;;;;;;;23.50;23.50;;;;;24.83;66.42;101275.63;4965514;28;8855;-68
2023/09/11 02:18:56;;;;;;;;;22.00;20.75;;;;;24.82;66.37;101271.22;4985040;28;8874;-70
2023/09/11 02:21:23;;;;;;;;;21.75;20.50;;;;;24.78;66.73;101269.31;4994236;28;8861;-70
2023/09/11 02:23:49;;;;;;;;;19.00;19.00;;;;;24.77;66.73;101264.91;4981180;28;9556;-68
2023/09/11 02:26:16;;;;;;;;;19.00;19.00;;;;;24.76;66.53;101274.28;4980058;28;8855;-68
2023/09/11 02:28:42;;;;;;;;;17.50;17.50;;;;;24.72;66.57;101267.69;4978201;28;8864;-68
2023/09/11 02:31:09;;;;;;;;;23.25;22.00;;;;;24.69;66.82;101263.53;4987306;28;8827;-69
2023/09/11 02:33:35;;;;;;;;;22.75;20.50;;;;;24.70;67.00;101267.13;4963073;28;11258;-68
2023/09/11 02:36:02;;;;;;;;;25.25;21.50;;;;;24.66;67.00;101264.09;4987078;28;9625;-68
2023/09/11 02:38:29;;;;;;;;;27.25;23.50;;;;;24.61;66.98;101267.69;4994807;28;8877;-68
2023/09/11 02:40:56;;;;;;;;;19.00;17.75;;;;;24.56;67.09;101259.44;4970159;28;8954;-68
2023/09/11 02:43:34;;;;;;;;;19.25;19.00;;;;;24.57;67.27;101257.50;4980132;28;8878;-68
2023/09/11 02:46:01;;;;;;;;;18.25;17.25;;;;;24.57;67.34;101255.59;4987453;28;8840;-68
2023/09/11 02:48:28;;;;;;;;;20.00;19.00;;;;;24.58;67.22;101256.41;4985475;28;8962;-68
2023/09/11 02:50:54;;;;;;;;;25.50;23.75;;;;;24.55;67.33;101251.44;4995088;28;8835;-68
2023/09/11 02:53:21;;;;;;;;;24.00;22.50;;;;;24.52;67.39;101247.34;4995205;28;8894;-68
2023/09/11 02:55:48;;;;;;;;;26.75;24.00;;;;;24.48;67.72;101243.50;4994781;28;8898;-68
2023/09/11 02:58:15;;;;;;;;;24.50;23.50;;;;;24.48;67.67;101250.94;4996074;28;8846;-69
2023/09/11 03:00:41;;;;;;;;;21.75;20.00;;;;;24.47;67.61;101249.25;4974491;28;8831;-69
2023/09/11 03:03:09;;;;;;;;;19.50;19.50;;;;;24.45;67.74;101246.78;4997844;28;8855;-68
2023/09/11 03:05:36;;;;;;;;;24.25;23.50;;;;;24.43;67.81;101246.25;4983571;28;8867;-68
2023/09/11 03:08:03;;;;;;;;;25.75;25.50;;;;;24.42;67.61;101247.34;4993289;28;8970;-68
2023/09/11 03:10:32;;;;;;;;;20.75;20.50;;;;;24.40;68.00;101239.38;4993676;28;8862;-69
2023/09/11 03:12:59;;;;;;;;;21.00;21.00;;;;;24.37;68.14;101233.56;4994652;28;9049;-68
2023/09/11 03:15:30;;;;;;;;;22.00;21.75;;;;;24.38;68.17;101230.56;4973327;28;8897;-69
2023/09/11 03:17:57;;;;;;;;;22.75;22.25;;;;;24.37;68.27;101233.56;4986979;28;8808;-69
2023/09/11 03:20:23;;;;;;;;;20.25;19.50;;;;;24.36;68.10;101223.66;4984952;28;8851;-69
2023/09/11 03:22:50;;;;;;;;;22.75;21.75;;;;;24.33;68.19;101221.47;4978423;28;8898;-68
2023/09/11 03:25:17;;;;;;;;;26.00;24.50;;;;;24.29;68.22;101215.69;4978077;28;8835;-69
2023/09/11 03:27:44;;;;;;;;;20.25;18.25;;;;;24.25;68.44;101216.53;4973140;28;8851;-69
2023/09/11 03:30:11;;;;;;;;;24.00;23.75;;;;;24.24;68.57;101223.13;4973447;28;8863;-69
2023/09/11 03:32:39;;;;;;;;;29.25;27.75;;;;;24.23;68.45;101214.06;4998813;28;8847;-68
2023/09/11 03:35:06;;;;;;;;;25.00;24.75;;;;;24.21;68.63;101224.50;4982464;28;9382;-69
2023/09/11 03:37:33;;;;;;;;;21.75;21.50;;;;;24.18;68.46;101209.38;4980334;28;8930;-68
2023/09/11 03:40:00;;;;;;;;;24.50;23.50;;;;;24.18;68.67;101206.63;4981616;28;8855;-68
2023/09/11 03:42:27;;;;;;;;;22.00;22.00;;;;;24.18;68.75;101212.13;4974646;28;8982;-69
2023/09/11 03:44:54;;;;;;;;;23.50;23.25;;;;;24.17;68.70;101210.47;4975241;28;10253;-69
2023/09/11 03:47:20;;;;;;;;;25.00;22.50;;;;;24.12;68.65;101204.97;4998636;28;8990;-68
2023/09/11 03:49:47;;;;;;;;;25.00;23.25;;;;;24.10;68.86;101200.84;4982861;28;8883;-68
2023/09/11 03:52:13;;;;;;;;;27.00;25.50;;;;;24.07;68.89;101202.22;4996160;28;8863;-69
2023/09/11 03:54:40;;;;;;;;;22.75;22.00;;;;;24.07;68.95;101202.22;4992552;28;8881;-68
2023/09/11 03:57:06;;;;;;;;;27.00;24.50;;;;;24.05;68.90;101198.09;4995679;28;8887;-69
2023/09/11 03:59:33;;;;;;;;;26.75;26.00;;;;;24.04;68.93;101191.78;4992864;28;8823;-68
2023/09/11 04:02:00;;;;;;;;;24.00;24.00;;;;;24.02;69.01;101199.47;4981088;28;8847;-68
2023/09/11 04:04:27;;;;;;;;;24.25;24.25;;;;;24.00;69.13;101190.69;4981540;28;8839;-69
2023/09/11 04:06:53;;;;;;;;;25.50;25.50;;;;;23.99;69.14;101199.22;4995417;28;9526;-68
2023/09/11 04:09:20;;;;;;;;;25.25;23.00;;;;;23.93;69.29;101185.44;4973998;28;8986;-68
2023/09/11 04:11:46;;;;;;;;;23.25;22.50;;;;;23.91;69.24;101181.34;4994749;28;8889;-69
2023/09/11 04:14:13;;;;;;;;;23.50;23.50;;;;;23.91;69.49;101175.84;4975849;28;8961;-68
2023/09/11 04:16:40;;;;;;;;;26.75;25.00;;;;;23.93;69.54;101179.94;4982715;28;8879;-68
2023/09/11 04:19:07;;;;;;;;;23.00;22.75;;;;;23.90;69.49;101180.53;4992833;28;8843;-68
2023/09/11 04:21:34;;;;;;;;;23.75;22.50;;;;;23.90;69.44;101182.41;4995360;28;8869;-69
2023/09/11 04:24:01;;;;;;;;;28.00;25.50;;;;;23.89;69.51;101178.84;4995255;28;8827;-68
2023/09/11 04:26:29;;;;;;;;;23.50;22.50;;;;;23.89;69.35;101175.28;4980629;28;8947;-69
2023/09/11 04:28:56;;;;;;;;;26.00;26.00;;;;;23.86;69.48;101173.06;4955964;28;8867;-69
2023/09/11 04:31:23;;;;;;;;;27.50;27.25;;;;;23.81;69.43;101167.59;4974441;28;8855;-69
2023/09/11 04:33:49;;;;;;;;;27.00;25.75;;;;;23.78;69.51;101168.13;4992102;28;8810;-68
2023/09/11 04:36:16;;;;;;;;;26.25;26.25;;;;;23.80;69.58;101179.69;4979052;28;8885;-69
2023/09/11 04:38:43;;;;;;;;;27.25;27.25;;;;;23.77;69.45;101167.31;4978638;28;8863;-68
2023/09/11 04:41:10;;;;;;;;;29.00;28.25;;;;;23.76;69.40;101160.16;4991556;28;8837;-69
2023/09/11 04:43:37;;;;;;;;;25.50;24.75;;;;;23.76;69.29;101156.59;4977714;28;8876;-68
2023/09/11 04:46:03;;;;;;;;;25.25;23.50;;;;;23.76;69.45;101160.16;4978253;28;8846;-69
2023/09/11 04:48:30;;;;;;;;;22.25;22.25;;;;;23.77;69.25;101163.72;4992699;28;9614;-69
2023/09/11 04:50:57;;;;;;;;;25.75;24.00;;;;;23.77;69.10;101152.72;4989069;28;8851;-68
2023/09/11 04:53:24;;;;;;;;;25.50;23.00;;;;;23.76;69.03;101157.41;4979262;28;8902;-68
2023/09/11 04:55:50;;;;;;;;;24.25;24.25;;;;;23.74;68.89;101158.78;4993855;28;8949;-69
2023/09/11 04:58:17;;;;;;;;;22.50;21.75;;;;;23.72;69.06;101150.00;4974717;28;9591;-68
2023/09/11 05:00:44;;;;;;;;;27.00;26.75;;;;;23.67;69.12;101150.81;4979717;28;8859;-69
2023/09/11 05:03:10;;;;;;;;;31.00;31.00;;;;;23.59;69.21;101154.91;4984331;28;8886;-68
2023/09/11 05:05:40;;;;;;;;;30.00;29.50;;;;;23.59;69.30;101154.91;4992422;28;8834;-68
2023/09/11 05:08:08;;;;;;;;;29.00;25.25;;;;;23.58;69.31;101166.19;4987345;28;8843;-69
2023/09/11 05:10:39;;;;;;;;;33.25;32.25;;;;;23.53;69.10;101166.97;4983142;28;8879;-68
2023/09/11 05:13:05;;;;;;;;;26.50;26.50;;;;;23.48;69.23;101166.97;4987582;28;8854;-68
2023/09/11 05:15:32;;;;;;;;;25.50;23.00;;;;;23.49;69.54;101173.28;4986821;28;8863;-68
2023/09/11 05:17:58;;;;;;;;;27.75;26.50;;;;;23.44;69.41;101168.63;4985109;28;9553;-69
2023/09/11 05:20:25;;;;;;;;;22.25;22.25;;;;;23.45;69.55;101173.00;4993234;28;8899;-69
2023/09/11 05:22:51;;;;;;;;;28.00;26.25;;;;;23.45;69.18;101181.25;4994356;28;8874;-69
2023/09/11 05:25:20;;;;;;;;;23.50;23.50;;;;;23.47;69.16;101175.50;4996553;28;8843;-69
2023/09/11 05:27:46;;;;;;;;;21.50;20.00;;;;;23.50;68.94;101174.94;4994550;28;8835;-69
2023/09/11 05:30:13;;;;;;;;;20.75;20.75;;;;;23.47;68.75;101178.25;5013429;28;8835;-69
2023/09/11 05:32:40;;;;;;;;;23.75;22.50;;;;;23.48;68.62;101177.97;5010155;28;8906;-70
2023/09/11 05:35:07;;;;;;;;;20.50;20.50;;;;;23.49;68.41;101173.28;4993691;28;9513;-70
2023/09/11 05:37:34;;;;;;;;;19.50;19.00;;;;;23.44;68.07;101174.94;5012814;28;8828;-69
2023/09/11 05:40:02;;;;;;;;;32.50;30.75;;;;;23.39;68.02;101179.59;4995739;28;8905;-69
2023/09/11 05:42:29;;;;;;;;;24.25;23.75;;;;;23.40;67.77;101178.50;5013260;28;8913;-69
2023/09/11 05:44:55;;;;;;;;;20.00;20.00;;;;;23.41;67.71;101186.47;5012887;28;8835;-69
2023/09/11 05:47:22;;;;;;;;;21.00;20.25;;;;;23.45;67.66;101184.81;5008494;28;8900;-71
2023/09/11 05:49:48;;;;;;;;;22.00;21.00;;;;;23.45;67.79;101186.75;5005103;28;8835;-70
2023/09/11 05:52:14;;;;;;;;;22.00;20.50;;;;;23.42;67.88;101187.31;5012824;28;8866;-69
2023/09/11 05:54:41;;;;;;;;;20.75;20.25;;;;;23.43;67.68;101187.03;4993716;28;8891;-68
2023/09/11 05:57:08;;;;;;;;;25.25;24.50;;;;;23.42;67.50;101192.81;5004516;28;9594;-70
2023/09/11 05:59:34;;;;;;;;;25.25;19.50;;;;;23.42;67.71;101196.38;4997944;28;8846;-69
2023/09/11 06:02:01;;;;;;;;;21.00;21.00;;;;;23.42;67.75;101209.28;5005308;28;8843;-68
2023/09/11 06:04:29;;;;;;;;;27.25;27.25;;;;;23.36;67.76;101208.44;5016021;23;8884;-69
2023/09/11 06:06:56;;;;;;;;;23.75;23.50;;;;;23.38;67.73;101208.19;5029541;28;8832;-69
2023/09/11 06:09:22;;;;;;;;;26.00;25.00;;;;;23.39;67.56;101207.91;5026766;28;8837;-70
2023/09/11 06:11:49;;;;;;;;;27.50;25.50;;;;;23.39;67.53;101207.09;5026260;28;8833;-70
2023/09/11 06:14:16;;;;;;;;;31.00;27.75;;;;;23.40;67.63;101212.28;5023805;28;8847;-69
2023/09/11 06:16:42;;;;;;;;;27.75;25.00;;;;;23.41;67.68;101213.94;5021886;28;8836;-70
2023/09/11 06:19:09;;;;;;;;;37.25;34.00;;;;;23.39;67.54;101212.56;5022932;28;8851;-70
2023/09/11 06:21:36;;;;;;;;;33.25;31.75;;;;;23.34;67.59;101213.38;5027274;28;8833;-69
2023/09/11 06:24:04;;;;;;;;;31.75;28.00;;;;;23.36;68.02;101215.84;5032018;28;8914;-70
2023/09/11 06:26:31;;;;;;;;;29.50;26.50;;;;;23.39;67.84;101207.91;5014263;28;9372;-69
2023/09/11 06:28:57;;;;;;;;;29.00;27.50;;;;;23.42;67.82;101217.53;5031590;28;9334;-70
2023/09/11 06:31:24;;;;;;;;;26.50;24.00;;;;;23.39;67.73;101218.06;5029329;28;8825;-69
2023/09/11 06:33:50;;;;;;;;;29.00;26.75;;;;;23.36;68.00;101219.44;5023209;28;8964;-69
2023/09/11 06:36:17;;;;;;;;;24.25;20.00;;;;;23.38;67.93;101217.25;5031597;28;8833;-69
2023/09/11 06:38:43;;;;;;;;;29.00;26.50;;;;;23.38;67.87;101217.25;5031727;28;8810;-70
2023/09/11 06:41:10;;;;;;;;;28.75;27.25;;;;;23.39;67.91;101216.16;5031712;28;8855;-70
2023/09/11 06:43:37;;;;;;;;;25.25;25.25;;;;;23.41;68.06;101226.84;5031602;28;8959;-69
2023/09/11 06:46:03;;;;;;;;;25.75;22.25;;;;;23.39;68.27;101229.88;5009730;28;9510;-70
2023/09/11 06:48:30;;;;;;;;;25.25;23.50;;;;;23.37;68.47;101228.50;5024061;28;8827;-68
2023/09/11 06:50:56;;;;;;;;;30.50;29.50;;;;;23.34;68.49;101226.31;5004523;28;8853;-69
2023/09/11 06:53:23;;;;;;;;;34.00;31.50;;;;;23.34;68.66;101226.31;5013854;28;8844;-70
2023/09/11 06:55:51;;;;;;;;;34.50;28.00;;;;;23.33;68.68;101221.88;5027219;28;8845;-70
2023/09/11 06:58:17;;;;;;;;;34.50;31.25;;;;;23.35;68.80;101216.97;5022684;28;9561;-70
2023/09/11 07:00:44;;;;;;;;;33.75;28.25;;;;;23.35;68.87;101216.97;5031309;28;8840;-69
2023/09/11 07:03:10;;;;;;;;;29.00;25.75;;;;;23.38;68.72;101221.91;5013727;28;8868;-69
2023/09/11 07:05:38;;;;;;;;;35.75;33.00;;;;;23.34;68.92;101221.63;5013428;28;8843;-70
2023/09/11 07:08:05;;;;;;;;;34.00;31.50;;;;;23.37;69.08;101215.56;5012821;28;8833;-69
2023/09/11 07:10:31;;;;;;;;;25.00;24.25;;;;;23.41;69.16;101219.44;5028213;28;8841;-70
2023/09/11 07:13:07;;;;;;;;;35.25;32.75;;;;;23.45;69.04;101216.97;5007002;28;8857;-68
2023/09/11 07:15:33;;;;;;;;;29.50;28.00;;;;;23.45;69.07;101217.78;5027634;28;8859;-70
2023/09/11 07:18:00;;;;;;;;;28.50;25.50;;;;;23.50;68.93;101208.75;5016423;28;8969;-69
2023/09/11 07:20:27;;;;;;;;;30.00;30.00;;;;;23.51;68.90;101209.59;5011269;28;9251;-68
2023/09/11 07:22:53;;;;;;;;;25.25;24.75;;;;;23.52;69.23;101219.47;5011296;28;9528;-68
2023/09/11 07:25:22;;;;;;;;;26.25;25.00;;;;;23.53;69.18;101221.09;5011000;28;8862;-68
2023/09/11 07:27:50;;;;;;;;;28.25;28.25;;;;;23.56;69.18;101226.88;5010690;28;8851;-69
2023/09/11 07:30:16;;;;;;;;;25.00;24.00;;;;;23.59;69.29;101231.84;5025531;28;8825;-69
2023/09/11 07:32:43;;;;;;;;;26.25;25.50;;;;;23.63;69.21;101226.63;5022618;28;8837;-69
2023/09/11 07:35:10;;;;;;;;;27.50;27.50;;;;;23.60;69.22;101219.75;5015129;28;8986;-69
2023/09/11 07:37:37;;;;;;;;;29.25;29.25;;;;;23.62;69.32;101228.56;5010680;28;8909;-69
2023/09/11 07:40:07;;;;;;;;;28.75;25.00;;;;;23.67;69.30;101225.84;5010755;28;9614;-68
2023/09/11 07:42:33;;;;;;;;;20.75;19.25;;;;;23.72;69.28;101232.47;5012322;28;8805;-69
2023/09/11 07:45:00;;;;;;;;;22.50;21.50;;;;;23.74;69.35;101235.75;5020281;28;9579;-69
2023/09/11 07:47:26;;;;;;;;;29.25;27.00;;;;;23.75;69.16;101238.25;5005455;28;8837;-69
2023/09/11 07:49:53;;;;;;;;;23.00;22.25;;;;;23.78;69.06;101234.94;5022779;28;9010;-69
2023/09/11 07:52:19;;;;;;;;;28.50;24.00;;;;;23.80;69.05;101234.66;5029339;28;8865;-69
2023/09/11 07:54:46;;;;;;;;;26.00;26.00;;;;;23.84;69.08;101241.28;5030211;28;8858;-68
2023/09/11 07:57:12;;;;;;;;;31.00;29.00;;;;;23.86;68.90;101236.31;5026024;28;8902;-69
2023/09/11 07:59:39;;;;;;;;;27.50;25.50;;;;;23.90;68.63;101245.66;5020550;28;8874;-69
2023/09/11 08:02:06;;;;;;;;;22.00;22.00;;;;;23.92;68.14;101244.28;5030380;28;8880;-68
2023/09/11 08:04:33;;;;;;;;;19.75;16.50;;;;;23.99;67.96;101256.97;5012277;28;8837;-69
2023/09/11 08:06:59;;;;;;;;;25.50;25.00;;;;;23.99;67.53;101256.97;5029968;28;8977;-69
2023/09/11 08:09:26;;;;;;;;;25.25;25.25;;;;;23.99;66.95;101263.28;5021453;28;8970;-69
2023/09/11 08:11:52;;;;;;;;;25.25;23.00;;;;;24.00;66.71;101256.69;5028831;28;8829;-71
2023/09/11 08:14:22;;;;;;;;;18.50;17.75;;;;;24.04;66.41;101256.97;5025039;28;9556;-68
2023/09/11 08:16:49;;;;;;;;;16.75;15.25;;;;;24.09;65.96;101248.69;5010229;28;9563;-68
2023/09/11 08:19:16;;;;;;;;;19.75;17.50;;;;;24.11;65.83;101252.84;5009037;28;8942;-69
2023/09/11 08:21:43;;;;;;;;;14.75;14.75;;;;;24.14;65.95;101249.50;5011144;28;8841;-66
2023/09/11 08:24:09;;;;;;;;;15.50;15.25;;;;;24.20;65.81;101252.28;5022843;28;8843;-69
2023/09/11 08:26:38;;;;;;;;;11.00;9.00;;;;;24.26;65.74;101249.25;5026080;28;8907;-69
2023/09/11 08:29:05;;;;;;;;;16.25;14.00;;;;;24.30;65.45;101255.03;5030091;28;8825;-68
2023/09/11 08:31:32;;;;;;;;;13.75;13.75;;;;;24.32;65.07;101258.34;5020539;28;8933;-68
2023/09/11 08:33:59;;;;;;;;;13.75;12.75;;;;;24.36;64.72;101262.19;5010030;28;8874;-68
2023/09/11 08:36:26;;;;;;;;;16.75;15.50;;;;;24.37;64.33;101269.34;5017549;28;8833;-68
2023/09/11 08:38:52;;;;;;;;;16.00;14.25;;;;;24.34;64.33;101267.13;5024198;28;8841;-69
2023/09/11 08:41:22;;;;;;;;;15.25;15.25;;;;;24.37;64.20;101266.59;5023362;28;9633;-67
2023/09/11 08:43:50;;;;;;;;;11.25;11.00;;;;;24.46;64.07;101267.69;5033763;28;8837;-69
2023/09/11 08:46:17;;;;;;;;;9.50;9.25;;;;;24.53;64.12;101267.44;5009450;28;8843;-68
2023/09/11 08:48:45;;;;;;;;;11.50;11.25;;;;;24.56;63.87;101275.97;4996359;28;8831;-69
2023/09/11 08:51:20;;;;;;;;;14.00;12.75;;;;;24.55;63.37;101262.44;5014369;28;8842;-69
2023/09/11 08:53:50;;;;;;;;;13.75;12.50;;;;;24.53;62.78;101267.44;5012771;28;8839;-69
2023/09/11 08:56:17;;;;;;;;;10.25;10.25;;;;;24.56;62.35;101267.69;5022982;28;8827;-69
2023/09/11 08:58:43;;;;;;;;;10.00;9.50;;;;;24.57;61.94;101269.34;5029716;28;8841;-68
2023/09/11 09:01:11;;;;;;;;;7.75;7.75;;;;;24.63;61.85;101273.75;5033045;28;9589;-68
2023/09/11 09:03:40;;;;;;;;;12.50;10.75;;;;;24.65;61.32;101266.03;5014499;28;9277;-69
2023/09/11 09:06:07;;;;;;;;;11.50;11.50;;;;;24.71;61.73;101263.25;5013324;28;8859;-67
2023/09/11 09:08:35;;;;;;;;;12.25;12.00;;;;;24.75;61.40;101272.59;5017849;28;8858;-68
2023/09/11 09:11:02;;;;;;;;;10.00;10.00;;;;;24.79;61.61;101273.69;5007339;28;8825;-69
2023/09/11 09:13:34;;;;;;;;;10.25;10.25;;;;;24.78;61.48;101269.31;5031719;28;8890;-68
2023/09/11 09:16:01;;;;;;;;;12.25;12.25;;;;;24.83;60.95;101280.28;5025036;28;9751;-69
2023/09/11 09:18:27;;;;;;;;;12.00;11.25;;;;;24.83;61.00;101272.03;5032961;28;8829;-70
2023/09/11 09:20:55;;;;;;;;;10.50;9.50;;;;;24.84;61.17;101276.47;5033217;28;9624;-69
2023/09/11 09:23:35;;;;;;;;;10.75;10.75;;;;;24.88;61.29;101278.38;5031669;28;8841;-69
2023/09/11 09:26:06;;;;;;;;;5.75;5.75;;;;;24.87;61.28;101267.63;5030520;28;8865;-68
2023/09/11 09:28:34;;;;;;;;;13.50;13.00;;;;;24.88;61.59;101266.53;5023216;28;8833;-69
2023/09/11 09:31:03;;;;;;;;;13.75;12.50;;;;;24.87;61.33;101264.88;5015154;28;8833;-69
2023/09/11 09:33:30;;;;;;;;;14.25;14.25;;;;;24.92;61.45;101257.44;5032337;28;9620;-70
2023/09/11 09:35:58;;;;;;;;;10.75;10.00;;;;;24.97;61.93;101266.78;5013148;28;9572;-69
2023/09/11 09:38:26;;;;;;;;;15.00;12.00;;;;;24.96;61.67;101265.13;5023882;28;8825;-69
2023/09/11 09:40:54;;;;;;;;;14.75;14.25;;;;;24.98;61.58;101269.25;5024328;28;8844;-69
2023/09/11 09:43:21;;;;;;;;;12.25;12.00;;;;;24.97;61.36;101264.84;5032669;28;9643;-70
2023/09/11 09:45:48;;;;;;;;;11.25;11.25;;;;;25.02;61.46;101270.34;5032805;28;9558;-69
2023/09/11 09:48:16;;;;;;;;;14.75;14.75;;;;;25.07;61.72;101272.25;5032470;28;8841;-68
2023/09/11 09:50:52;;;;;;;;;15.75;15.75;;;;;25.06;61.54;101271.41;5029320;28;8860;-67
2023/09/11 09:53:41;;;;;;;;;12.25;12.25;;;;;25.06;61.38;101271.41;5023948;28;9593;-68
2023/09/11 09:56:10;;;;;;;;;10.75;10.75;;;;;25.05;61.15;101275.28;5025914;28;8825;-70
2023/09/11 09:58:42;;;;;;;;;14.75;14.75;;;;;25.04;60.90;101273.66;5031454;28;8967;-69
2023/09/11 10:01:17;;;;;;;;;12.75;12.75;;;;;25.05;61.00;101275.28;5031344;28;8904;-70
2023/09/11 10:03:51;;;;;;;;;11.50;11.50;;;;;25.09;61.25;101265.38;5032679;28;8820;-70
2023/09/11 10:06:31;;;;;;;;;12.50;12.50;;;;;25.09;60.80;101257.13;5030277;28;8944;-70
2023/09/11 10:09:08;;;;;;;;;11.00;11.00;;;;;25.16;60.85;101256.81;5027588;28;8788;-69
2023/09/11 10:11:36;;;;;;;;;9.50;9.50;;;;;25.19;61.11;101261.75;5028183;28;8848;-70
2023/09/11 10:14:05;;;;;;;;;13.50;13.50;;;;;25.21;61.36;101269.75;5032033;28;8940;-71
2023/09/11 10:16:32;;;;;;;;;14.00;14.00;;;;;25.13;60.21;101266.47;5014264;28;8843;-69
2023/09/11 10:19:00;;;;;;;;;13.50;13.50;;;;;25.15;60.36;101264.25;5014502;28;8825;-70
2023/09/11 10:21:27;;;;;;;;;9.75;9.75;;;;;25.20;60.36;101260.66;5032178;28;8919;-70
2023/09/11 10:23:54;;;;;;;;;11.75;11.75;;;;;25.25;60.46;101257.06;5002218;28;9537;-68
2023/09/11 10:26:23;;;;;;;;;14.75;12.50;;;;;25.25;60.77;101259.81;5023430;28;8947;-69
2023/09/11 10:28:54;;;;;;;;;13.00;11.75;;;;;25.25;60.79;101257.88;5032103;28;8852;-69
2023/09/11 10:31:25;;;;;;;;;13.75;13.25;;;;;25.19;61.07;101266.44;5030617;28;8813;-70
2023/09/11 10:33:57;;;;;;;;;14.50;13.25;;;;;25.22;61.17;101268.63;5012434;28;8844;-70
2023/09/11 10:36:30;;;;;;;;;13.75;13.75;;;;;25.27;60.84;101266.69;5014056;28;8844;-70
2023/09/11 10:39:00;;;;;;;;;13.00;13.00;;;;;25.30;61.11;101265.31;5024239;28;8856;-70
2023/09/11 10:41:27;;;;;;;;;14.50;13.00;;;;;25.35;61.00;101257.00;5026919;28;8821;-70
2023/09/11 10:43:54;;;;;;;;;15.00;13.25;;;;;25.35;60.76;101259.75;5031354;28;8848;-70
2023/09/11 10:46:21;;;;;;;;;10.00;10.00;;;;;25.35;60.43;101260.56;5031729;28;8865;-69
2023/09/11 10:48:51;;;;;;;;;14.50;13.75;;;;;25.36;60.45;101261.41;5031632;28;8843;-69
2023/09/11 10:51:17;;;;;;;;;11.50;10.50;;;;;25.40;60.35;101256.97;5028797;28;8861;-69
2023/09/11 10:53:47;;;;;;;;;12.00;12.00;;;;;25.44;60.62;101262.75;5021506;28;8831;-70
2023/09/11 10:56:15;;;;;;;;;12.25;12.25;;;;;25.44;60.74;101260.81;5011592;28;8811;-70
2023/09/11 10:58:42;;;;;;;;;15.75;15.75;;;;;25.41;61.04;101258.63;5011831;28;8827;-70
2023/09/11 11:01:13;;;;;;;;;14.75;12.50;;;;;25.43;61.11;101255.59;5030055;28;8841;-70
2023/09/11 11:03:40;;;;;;;;;11.75;11.75;;;;;25.43;61.26;101258.34;5030741;28;8923;-70
2023/09/11 11:06:10;;;;;;;;;13.50;13.25;;;;;25.43;61.34;101256.41;5030699;28;8903;-69
2023/09/11 11:08:39;;;;;;;;;14.25;13.25;;;;;25.45;61.36;101258.91;5021400;28;8862;-70
2023/09/11 11:11:22;;;;;;;;;16.00;16.00;;;;;25.42;61.65;101254.75;5000017;28;8836;-69
2023/09/11 11:14:14;;;;;;;;;19.00;17.75;;;;;25.48;61.98;101258.31;5011301;28;8827;-70
2023/09/11 11:17:04;;;;;;;;;15.75;15.75;;;;;25.52;61.53;101260.25;5010901;28;8933;-70
2023/09/11 11:19:32;;;;;;;;;13.75;13.75;;;;;25.52;61.06;101264.91;5027176;28;8853;-70
2023/09/11 11:22:06;;;;;;;;;11.75;11.75;;;;;25.56;61.14;101265.97;5005141;28;8857;-70